createdAt,value
2019-01-18T00:00:41.319Z,136.03
2019-01-18T00:05:47.963Z,127.17
2019-01-18T00:11:07.240Z,134.50
2019-01-18T00:13:37.527Z,140.53
2019-01-18T00:16:07.779Z,132.07
2019-01-18T00:18:37.950Z,148.67
2019-01-18T00:21:08.106Z,111.37
2019-01-18T00:23:38.353Z,111.80
2019-01-18T00:26:08.619Z,113.07
2019-01-18T00:28:38.767Z,127.53
2019-01-18T00:31:08.921Z,124.50
2019-01-18T00:33:39.182Z,128.17
2019-01-18T00:36:09.340Z,104.80
2019-01-18T00:38:39.608Z,113.97
2019-01-18T00:41:09.865Z,118.67
2019-01-18T00:43:40.027Z,108.70
2019-01-18T00:46:10.204Z,84.73
2019-01-18T00:48:40.462Z,88.77
2019-01-18T00:51:10.738Z,72.40
2019-01-18T00:53:40.911Z,68.20
2019-01-18T00:56:11.076Z,77.77
2019-01-18T00:58:41.323Z,75.13
2019-01-18T01:01:11.639Z,60.10
2019-01-18T01:03:41.781Z,70.20
2019-01-18T01:06:11.942Z,72.60
2019-01-18T01:08:42.199Z,69.17
2019-01-18T01:11:12.604Z,78.83
2019-01-18T01:13:42.969Z,64.73
2019-01-18T01:16:13.211Z,81.30
2019-01-18T01:18:43.467Z,86.83
2019-01-18T01:21:13.633Z,113.50
2019-01-18T01:23:43.892Z,82.00
2019-01-18T01:26:14.183Z,74.80
2019-01-18T01:28:44.337Z,77.27
2019-01-18T01:31:14.483Z,83.83
2019-01-18T01:33:44.745Z,88.60
2019-01-18T01:36:14.998Z,84.53
2019-01-18T01:38:45.174Z,108.00
2019-01-18T01:41:15.333Z,76.27
2019-01-18T01:43:45.599Z,64.73
2019-01-18T01:46:15.861Z,81.53
2019-01-18T01:48:46.037Z,75.07
2019-01-18T01:51:16.305Z,77.30
2019-01-18T01:53:46.566Z,77.77
2019-01-18T01:56:16.697Z,64.40
2019-01-18T01:58:46.941Z,68.60
2019-01-18T02:01:17.210Z,76.73
2019-01-18T02:03:47.362Z,60.53
2019-01-18T02:06:17.544Z,58.20
2019-01-18T02:08:47.779Z,55.00
2019-01-18T02:11:18.118Z,47.17
2019-01-18T02:13:48.259Z,51.83
2019-01-18T02:16:18.409Z,50.43
2019-01-18T02:18:48.680Z,68.93
2019-01-18T02:21:18.939Z,61.73
2019-01-18T02:23:49.092Z,56.57
2019-01-18T02:26:19.279Z,54.70
2019-01-18T02:28:49.537Z,47.33
2019-01-18T02:31:19.797Z,55.83
2019-01-18T02:33:49.953Z,44.30
2019-01-18T02:36:20.124Z,53.40
2019-01-18T02:38:50.371Z,59.80
2019-01-18T02:41:20.625Z,58.27
2019-01-18T02:43:50.883Z,73.10
2019-01-18T02:46:21.027Z,60.43
2019-01-18T02:48:51.289Z,62.60
2019-01-18T02:51:21.554Z,62.57
2019-01-18T02:53:51.741Z,55.60
2019-01-18T02:56:21.886Z,45.43
2019-01-18T02:58:52.140Z,56.83
2019-01-18T03:01:22.387Z,41.43
2019-01-18T03:03:52.539Z,46.60
2019-01-18T03:06:22.698Z,60.40
2019-01-18T03:08:52.953Z,49.57
2019-01-18T03:13:58.924Z,53.50
2019-01-18T03:16:29.295Z,79.07
2019-01-18T03:18:59.456Z,48.73
2019-01-18T03:21:29.609Z,49.13
2019-01-18T03:23:59.919Z,46.97
2019-01-18T03:26:30.157Z,42.70
2019-01-18T03:29:00.312Z,39.80
2019-01-18T03:31:30.476Z,24.23
2019-01-18T03:34:00.750Z,33.17
2019-01-18T03:36:31.007Z,23.57
2019-01-18T03:39:01.165Z,34.73
2019-01-18T03:41:31.336Z,14.20
2019-01-18T03:44:01.610Z,32.23
2019-01-18T03:46:31.922Z,38.10
2019-01-18T03:49:02.084Z,11.83
2019-01-18T03:51:32.255Z,33.20
2019-01-18T03:54:02.554Z,14.30
2019-01-18T03:56:32.703Z,30.63
2019-01-18T03:59:02.973Z,14.23
2019-01-18T04:01:33.233Z,31.47
2019-01-18T04:04:03.486Z,23.47
2019-01-18T04:06:33.669Z,28.17
2019-01-18T04:11:59.556Z,17.50
2019-01-18T04:14:29.813Z,23.73
2019-01-18T04:16:59.966Z,15.27
2019-01-18T04:19:30.137Z,36.73
2019-01-18T04:24:56.077Z,31.33
2019-01-18T04:30:02.409Z,27.07
2019-01-18T04:32:32.591Z,27.13
2019-01-18T04:35:02.973Z,36.33
2019-01-18T04:37:33.240Z,43.57
2019-01-18T04:40:03.439Z,29.27
2019-01-18T04:42:33.688Z,25.37
2019-01-18T04:45:03.857Z,40.80
2019-01-18T04:47:34.025Z,29.93
2019-01-18T04:50:04.383Z,37.67
2019-01-18T04:52:34.638Z,35.77
2019-01-18T04:58:04.319Z,24.30
2019-01-18T05:00:40.486Z,43.23
2019-01-18T05:06:04.927Z,40.70
2019-01-18T05:08:35.192Z,30.50
2019-01-18T05:14:06.748Z,21.50
2019-01-18T05:16:37.316Z,18.37
2019-01-18T05:19:07.567Z,25.87
2019-01-18T05:21:37.754Z,23.53
2019-01-18T05:24:07.943Z,31.80
2019-01-18T05:26:38.149Z,23.37
2019-01-18T05:29:08.377Z,19.90
2019-01-18T05:31:38.606Z,33.87
2019-01-18T05:34:08.890Z,51.70
2019-01-18T05:36:39.106Z,28.00
2019-01-18T05:39:09.396Z,476.93
2019-01-18T05:41:39.620Z,708.57
2019-01-18T05:44:09.888Z,329.47
2019-01-18T05:46:40.108Z,371.37
2019-01-18T05:49:10.266Z,195.17
2019-01-18T05:51:40.482Z,105.23
2019-01-18T05:54:10.743Z,119.43
2019-01-18T05:56:40.965Z,89.27
2019-01-18T05:59:11.138Z,56.60
2019-01-18T06:01:41.344Z,80.80
2019-01-18T06:04:11.597Z,57.17
2019-01-18T06:12:11.206Z,66.93
2019-01-18T06:23:36.208Z,55.87
2019-01-18T06:26:06.466Z,62.07
2019-01-18T06:28:36.716Z,49.80
2019-01-18T06:31:06.966Z,59.80
2019-01-18T06:33:37.118Z,66.93
2019-01-18T06:36:07.335Z,56.23
2019-01-18T06:38:38.573Z,60.87
2019-01-18T06:41:28.580Z,85.20
2019-01-18T06:43:58.900Z,69.17
2019-01-18T06:46:29.125Z,82.60
2019-01-18T06:48:59.489Z,75.50
2019-01-18T06:51:29.812Z,98.10
2019-01-18T06:53:59.969Z,105.73
2019-01-18T06:59:19.517Z,151.23
2019-01-18T07:01:49.843Z,80.17
2019-01-18T07:04:20.352Z,112.40
2019-01-18T07:06:50.624Z,99.03
2019-01-18T07:09:20.799Z,96.67
2019-01-18T07:11:50.956Z,97.17
2019-01-18T07:14:21.219Z,92.87
2019-01-18T07:16:51.486Z,86.43
2019-01-18T07:19:21.642Z,104.27
2019-01-18T07:21:51.786Z,91.33
2019-01-18T07:24:22.036Z,83.77
2019-01-18T07:26:52.303Z,101.37
2019-01-18T07:29:22.492Z,99.53
2019-01-18T07:31:52.644Z,85.43
2019-01-18T07:34:22.885Z,84.40
2019-01-18T07:36:53.134Z,94.43
2019-01-18T07:39:23.289Z,80.60
2019-01-18T07:41:53.539Z,96.30
2019-01-18T07:44:23.726Z,93.97
2019-01-18T07:46:53.977Z,104.47
2019-01-18T07:49:24.264Z,104.93
2019-01-18T07:51:54.569Z,154.27
2019-01-18T07:54:24.767Z,180.27
2019-01-18T07:56:54.966Z,119.00
2019-01-18T08:02:01.291Z,154.50
2019-01-18T08:04:31.475Z,134.97
2019-01-18T08:07:01.645Z,120.83
2019-01-18T08:09:31.909Z,140.27
2019-01-18T08:12:02.177Z,132.60
2019-01-18T08:14:32.376Z,192.17
2019-01-18T08:17:02.572Z,197.20
2019-01-18T08:19:32.882Z,229.20
2019-01-18T08:22:03.172Z,148.20
2019-01-18T08:24:33.393Z,119.47
2019-01-18T08:27:03.611Z,94.30
2019-01-18T08:29:33.879Z,91.83
2019-01-18T08:32:04.131Z,80.97
2019-01-18T08:34:34.315Z,83.03
2019-01-18T08:37:04.516Z,91.77
2019-01-18T08:39:34.783Z,108.23
2019-01-18T08:42:05.083Z,74.60
2019-01-18T08:44:35.297Z,78.43
2019-01-18T08:47:05.515Z,91.87
2019-01-18T08:49:35.807Z,95.73
2019-01-18T08:52:06.179Z,89.23
2019-01-18T08:54:36.363Z,85.77
2019-01-18T08:57:13.497Z,86.50
2019-01-18T08:59:43.797Z,85.77
2019-01-18T09:02:13.953Z,103.20
2019-01-18T09:04:44.206Z,108.47
2019-01-18T09:07:14.471Z,101.93
2019-01-18T09:09:44.637Z,104.97
2019-01-18T09:12:14.806Z,111.30
2019-01-18T09:23:31.405Z,165.67
2019-01-18T09:26:01.802Z,267.80
2019-01-18T09:28:50.881Z,203.03
2019-01-18T09:34:43.898Z,144.17
2019-01-18T09:43:59.511Z,109.77
2019-01-18T09:52:58.403Z,113.10
2019-01-18T09:55:47.608Z,93.90
2019-01-18T09:58:56.799Z,98.53
2019-01-18T10:05:01.178Z,116.60
2019-01-18T10:07:46.460Z,99.23
2019-01-18T10:10:37.988Z,84.00
2019-01-18T10:16:36.259Z,74.00
2019-01-18T10:24:30.495Z,81.60
2019-01-18T10:27:00.731Z,87.40
2019-01-18T10:29:30.900Z,68.57
2019-01-18T10:32:01.133Z,70.10
2019-01-18T10:34:31.385Z,78.80
2019-01-18T10:37:01.591Z,83.60
2019-01-18T10:39:31.780Z,74.87
2019-01-18T10:42:02.016Z,67.47
2019-01-18T10:44:32.271Z,70.90
2019-01-18T10:47:02.509Z,83.00
2019-01-18T10:49:32.875Z,75.17
2019-01-18T10:52:03.088Z,75.60
2019-01-18T10:54:33.246Z,73.10
2019-01-18T10:57:03.552Z,72.43
2019-01-18T10:59:33.843Z,74.63
2019-01-18T11:02:07.287Z,65.27
2019-01-18T11:04:36.167Z,80.73
2019-01-18T11:07:06.522Z,54.23
2019-01-18T11:09:36.785Z,65.13
2019-01-18T11:12:07.014Z,61.83
2019-01-18T11:14:37.277Z,81.93
2019-01-18T11:17:07.500Z,58.17
2019-01-18T11:19:37.798Z,50.50
2019-01-18T11:22:08.052Z,54.03
2019-01-18T11:24:38.268Z,60.63
2019-01-18T11:27:08.500Z,90.73
2019-01-18T11:29:38.857Z,76.30
2019-01-18T11:32:13.708Z,70.93
2019-01-18T11:34:41.172Z,66.17
2019-01-18T11:37:11.514Z,102.53
2019-01-18T11:39:41.791Z,98.40
2019-01-18T11:42:12.817Z,82.57
2019-01-18T11:47:20.299Z,85.57
2019-01-18T11:49:50.754Z,79.80
2019-01-18T11:52:21.037Z,126.10
2019-01-18T11:54:51.206Z,77.83
2019-01-18T11:57:21.425Z,109.17
2019-01-18T11:59:51.726Z,110.33
2019-01-18T12:02:22.357Z,122.83
2019-01-18T12:04:54.038Z,115.77
2019-01-18T12:07:24.526Z,126.83
2019-01-18T12:09:54.708Z,115.93
2019-01-18T12:12:25.473Z,103.73
2019-01-18T12:14:56.923Z,104.00
2019-01-18T12:17:27.337Z,116.53
2019-01-18T12:19:57.536Z,102.67
2019-01-18T12:22:27.755Z,93.87
2019-01-18T12:24:58.032Z,75.17
2019-01-18T12:27:28.301Z,89.27
2019-01-18T12:29:58.492Z,123.20
2019-01-18T12:32:28.958Z,113.37
2019-01-18T12:35:00.832Z,114.20
2019-01-18T12:37:31.359Z,104.13
2019-01-18T12:40:01.574Z,123.33
2019-01-18T12:42:31.776Z,118.93
2019-01-18T12:45:02.042Z,150.30
2019-01-18T12:47:32.250Z,99.43
2019-01-18T12:50:02.528Z,89.27
2019-01-18T12:52:32.790Z,93.60
2019-01-18T12:55:02.983Z,118.87
2019-01-18T12:57:33.179Z,127.03
2019-01-18T13:00:03.532Z,124.87
2019-01-18T13:02:35.414Z,116.00
2019-01-18T13:08:01.637Z,86.50
2019-01-18T13:10:32.045Z,71.90
2019-01-18T13:13:02.358Z,114.20
2019-01-18T13:16:02.473Z,111.93
2019-01-18T13:18:33.562Z,113.43
2019-01-18T13:21:04.001Z,101.63
2019-01-18T13:23:34.266Z,81.83
2019-01-18T13:26:24.514Z,68.77
2019-01-18T13:28:54.986Z,59.33
2019-01-18T13:31:25.323Z,60.73
2019-01-18T13:33:55.642Z,61.83
2019-01-18T13:36:25.919Z,100.07
2019-01-18T13:38:56.200Z,121.33
2019-01-18T13:41:26.471Z,186.90
2019-01-18T13:43:56.644Z,79.83
2019-01-18T13:46:26.927Z,94.20
2019-01-18T13:48:57.206Z,112.77
2019-01-18T13:51:27.412Z,133.17
2019-01-18T13:53:57.592Z,120.27
2019-01-18T13:56:27.886Z,123.60
2019-01-18T13:58:58.191Z,109.10
2019-01-18T14:01:28.382Z,122.47
2019-01-18T14:03:58.573Z,123.43
2019-01-18T14:06:28.866Z,113.70
2019-01-18T14:08:59.209Z,140.30
2019-01-18T14:11:29.427Z,154.83
2019-01-18T14:13:59.630Z,153.60
2019-01-18T14:16:29.927Z,149.43
2019-01-18T14:19:00.215Z,140.17
2019-01-18T14:21:30.446Z,145.70
2019-01-18T14:24:00.661Z,138.03
2019-01-18T14:26:30.992Z,143.43
2019-01-18T14:31:37.774Z,198.37
2019-01-18T14:34:07.995Z,116.23
2019-01-18T14:36:38.391Z,180.93
2019-01-18T14:39:29.949Z,87.37
2019-01-18T14:42:00.294Z,110.63
2019-01-18T14:44:30.500Z,115.87
2019-01-18T14:47:00.939Z,83.00
2019-01-18T14:49:32.535Z,130.90
2019-01-18T14:52:03.347Z,96.37
2019-01-18T14:54:33.727Z,133.50
2019-01-18T14:57:03.973Z,83.87
2019-01-18T14:59:34.189Z,93.17
2019-01-18T15:02:04.509Z,114.80
2019-01-18T15:04:34.785Z,85.40
2019-01-18T15:07:04.963Z,101.30
2019-01-18T15:09:35.131Z,142.80
2019-01-18T15:12:05.799Z,216.47
2019-01-18T15:14:36.095Z,133.97
2019-01-18T15:17:06.333Z,170.30
2019-01-18T15:19:36.555Z,153.30
2019-01-18T15:22:06.832Z,114.10
2019-01-18T15:24:37.111Z,119.87
2019-01-18T15:27:07.299Z,139.63
2019-01-18T15:29:37.586Z,159.40
2019-01-18T15:32:07.767Z,183.33
2019-01-18T15:34:38.046Z,205.70
2019-01-18T15:37:08.355Z,210.00
2019-01-18T15:39:38.633Z,200.87
2019-01-18T15:47:54.214Z,198.60
2019-01-18T15:50:27.213Z,245.50
2019-01-18T15:52:57.482Z,237.03
2019-01-18T15:55:27.776Z,208.67
2019-01-18T15:57:58.219Z,248.30
2019-01-18T16:00:30.768Z,218.13
2019-01-18T16:03:01.255Z,287.93
2019-01-18T16:05:31.461Z,335.03
2019-01-18T16:08:01.642Z,305.53
2019-01-18T16:10:31.906Z,222.57
2019-01-18T16:13:02.244Z,160.67
2019-01-18T16:15:36.393Z,163.00
2019-01-18T16:18:10.399Z,152.07
2019-01-18T16:20:40.590Z,147.63
2019-01-18T16:23:10.773Z,151.93
2019-01-18T16:25:41.048Z,154.53
2019-01-18T16:28:11.302Z,130.70
2019-01-18T16:30:41.522Z,141.53
2019-01-18T16:33:11.736Z,168.43
2019-01-18T16:35:41.994Z,131.60
2019-01-18T16:38:13.200Z,134.03
2019-01-18T16:40:43.389Z,131.43
2019-01-18T16:43:52.094Z,122.37
2019-01-18T16:46:22.465Z,127.50
2019-01-18T16:48:52.782Z,128.03
2019-01-18T16:51:22.960Z,229.60
2019-01-18T16:53:53.279Z,159.73
2019-01-18T16:56:23.460Z,185.37
2019-01-18T16:58:53.706Z,153.10
2019-01-18T17:01:23.979Z,190.37
2019-01-18T17:03:54.356Z,231.00
2019-01-18T17:06:24.531Z,366.33
2019-01-18T17:08:54.696Z,267.37
2019-01-18T17:11:24.961Z,252.40
2019-01-18T17:13:55.242Z,190.53
2019-01-18T17:16:25.429Z,237.70
2019-01-18T17:18:55.593Z,357.63
2019-01-18T17:21:25.916Z,240.43
2019-01-18T17:23:56.183Z,233.57
2019-01-18T17:26:26.343Z,270.50
2019-01-18T17:28:56.617Z,239.27
2019-01-18T17:31:26.907Z,248.00
2019-01-18T17:33:57.110Z,429.33
2019-01-18T17:39:44.875Z,346.20
2019-01-18T17:42:52.687Z,297.63
2019-01-18T17:46:00.509Z,343.93
2019-01-18T17:48:52.794Z,321.80
2019-01-18T18:00:50.319Z,401.27
2019-01-18T18:10:09.253Z,461.10
2019-01-18T18:16:03.461Z,438.10
2019-01-18T18:19:01.057Z,443.60
2019-01-18T18:21:59.133Z,432.20
2019-01-18T18:24:51.435Z,431.20
2019-01-18T18:27:59.206Z,425.53
2019-01-18T18:30:52.167Z,406.50
2019-01-18T18:37:03.222Z,369.10
2019-01-18T18:42:50.172Z,473.57
2019-01-18T18:45:58.127Z,444.37
2019-01-18T18:51:51.013Z,455.53
2019-01-18T18:54:34.835Z,433.70
2019-01-18T18:57:36.772Z,491.83
2019-01-18T19:06:47.752Z,398.03
2019-01-18T19:09:40.267Z,502.90
2019-01-18T19:12:48.078Z,504.23
2019-01-18T19:21:42.992Z,369.17
2019-01-18T19:24:50.834Z,340.27
2019-01-18T19:30:54.328Z,315.07
2019-01-18T19:43:00.448Z,446.87
2019-01-18T19:46:08.150Z,448.37
2019-01-18T19:57:39.985Z,336.73
2019-01-18T20:03:58.226Z,380.03
2019-01-18T20:09:46.500Z,383.47
2019-01-18T20:15:53.986Z,370.00
2019-01-18T20:21:37.295Z,412.53
2019-01-18T20:27:43.061Z,364.97
2019-01-18T20:33:52.456Z,359.80
2019-01-18T20:46:26.770Z,387.33
2019-01-18T20:52:23.527Z,292.57
2019-01-18T20:55:31.640Z,298.23
2019-01-18T20:58:27.944Z,292.27
2019-01-18T21:10:27.116Z,198.67
2019-01-18T21:16:16.657Z,196.07
2019-01-18T21:22:05.452Z,260.73
2019-01-18T21:25:13.301Z,259.87
2019-01-18T21:31:06.567Z,330.83
2019-01-18T21:37:24.029Z,286.30
2019-01-18T21:43:53.297Z,303.53
2019-01-18T21:46:42.135Z,284.73
2019-01-18T21:49:49.841Z,290.33
2019-01-18T21:55:58.986Z,258.33
2019-01-18T22:01:45.186Z,251.10
2019-01-18T22:04:40.627Z,212.03
2019-01-18T22:07:47.994Z,236.37
2019-01-18T22:10:55.792Z,222.70
2019-01-18T22:14:03.505Z,217.60
2019-01-18T22:26:36.133Z,287.50
2019-01-18T22:32:46.019Z,250.17
2019-01-18T22:35:28.518Z,240.57
2019-01-18T22:41:36.153Z,266.90
2019-01-18T22:44:44.049Z,256.17
2019-01-18T22:51:14.128Z,245.60
2019-01-18T22:57:06.758Z,261.57
2019-01-18T23:02:55.605Z,274.27
2019-01-18T23:11:43.912Z,271.10
2019-01-18T23:17:31.733Z,244.37
2019-01-18T23:26:41.538Z,206.83
2019-01-18T23:36:01.595Z,212.90
2019-01-18T23:39:09.364Z,197.73
2019-01-18T23:44:52.283Z,162.00
2019-01-18T23:48:00.003Z,154.80
2019-01-18T23:56:39.208Z,168.73
